Forside
METAR-TAF:

METAR-TAF

Lufthavne :

José Martí Internationale Lufthavn

Havana, Cuba

Breddekreds: 22-59N, længdekreds: 082-24W, højde: 59 m

Aktuelle vejr

Denne rapport blev lavet for 42 minutter siden, kl. 05:55 UTC
Vind stille
Temperatur 24°C
Fugtighed 100%
Tryk 1016 hPa
Sigt: 9000 m
Nogle få skyer i en højde af 3000 ft

METAR: MUHA 210555Z 00000KT 9000 FEW030 24/24 Q1016

Tid: 02:37 (06:37 UTC)

Vejrudsigter

Denne rapport blev lavet for 1 time og 37 minutter siden, kl. 05:00 UTC
Foreløbig gælder fra 21 på 06 UTC til 22 på 06 UTC
Vind 3 kt fra varierende retninger
Sigt: 9000 m
Nogle få skyer i en højde af 3000 ft
ændring
fra 21 på 14 UTC til 21 på 16 UTC
Vind 10 kt fra øst
Midlertidig
fra 21 på 19 UTC til 21 på 23 UTC
Vind 10 kt fra varierende retninger
Sigt: 4000 m
Nogle få skyer i en højde af 2000 ft, Cumulonimbus.
Brudte skyer i en højde af 3000 ft
tordenbyger, regn

TAF: MUHA 210500Z 2106/2206 VRB03KT 9000 FEW030 BECMG 2114/2116 08010KT TEMPO 2119/2123 VRB10KT 4000 TSRA FEW020CB BKN030

Vejrobservationer og prognoser fra mere end 4000 lufthavne (METAR og TAF).

De gule og røde prikker repræsenterer de meteorologiske stationer.

Flyt musen over at se navnet på stationen.

Så klik over at se vejr observationer og prognoser.

At skifte det kort: Klik på de grønne knapper med et sort kors for at zoome ind; på den grønne knap med en bindestreg for at zoome ud; eller på de grønne pile for tilstødende kort.


METAR-TAF: